createdAt,value
2022-12-01T00:04:20.604Z,3.40
2022-12-01T00:09:43.451Z,3.96
2022-12-01T00:14:54.658Z,7.01
2022-12-01T00:19:57.383Z,6.84
2022-12-01T00:24:59.873Z,5.08
2022-12-01T00:30:02.359Z,4.10
2022-12-01T00:35:05.774Z,5.22
2022-12-01T00:40:09.804Z,7.70
2022-12-01T00:45:12.339Z,6.71
2022-12-01T00:50:14.828Z,5.04
2022-12-01T00:55:17.280Z,4.11
2022-12-01T01:00:20.237Z,3.53
2022-12-01T01:05:23.241Z,4.16
2022-12-01T01:10:25.750Z,7.01
2022-12-01T01:15:28.242Z,7.50
2022-12-01T01:20:31.334Z,5.54
2022-12-01T01:25:34.020Z,4.33
2022-12-01T01:30:39.624Z,5.16
2022-12-01T01:35:42.107Z,7.54
2022-12-01T01:40:47.156Z,6.43
2022-12-01T01:45:49.681Z,4.76
2022-12-01T01:50:52.377Z,3.98
2022-12-01T01:55:54.943Z,6.02
2022-12-01T02:00:57.523Z,7.03
2022-12-01T02:06:04.644Z,5.25
2022-12-01T02:11:10.537Z,4.15
2022-12-01T02:16:23.113Z,3.52
2022-12-01T02:21:30.938Z,3.05
2022-12-01T02:26:43.622Z,2.72
2022-12-01T02:31:53.640Z,3.67
2022-12-01T02:37:06.184Z,6.94
2022-12-01T02:42:40.172Z,7.14
2022-12-01T02:47:45.118Z,5.21
2022-12-01T02:52:47.779Z,4.22
2022-12-01T02:57:50.265Z,3.63
2022-12-01T03:03:01.454Z,4.21
2022-12-01T03:08:16.132Z,7.07
2022-12-01T03:13:30.471Z,6.36
2022-12-01T03:18:38.649Z,4.56
2022-12-01T03:23:48.066Z,3.59
2022-12-01T03:28:57.469Z,3.09
2022-12-01T03:34:07.630Z,3.84
2022-12-01T03:39:16.921Z,6.78
2022-12-01T03:44:26.211Z,7.11
2022-12-01T03:49:29.134Z,5.26
2022-12-01T03:54:47.257Z,4.29
2022-12-01T03:59:50.301Z,3.99
2022-12-01T04:04:53.746Z,6.41
2022-12-01T04:09:56.209Z,7.88
2022-12-01T04:15:02.060Z,6.34
2022-12-01T04:20:06.853Z,4.78
2022-12-01T04:25:10.459Z,4.94
2022-12-01T04:30:13.213Z,7.63
2022-12-01T04:35:18.134Z,7.29
2022-12-01T04:40:21.553Z,5.47
2022-12-01T04:45:24.079Z,4.48
2022-12-01T04:50:26.556Z,6.04
2022-12-01T04:55:29.004Z,8.15
2022-12-01T05:00:31.866Z,8.04
2022-12-01T05:05:34.397Z,5.88
2022-12-01T05:10:38.272Z,4.64
2022-12-01T05:15:40.760Z,3.85
2022-12-01T05:20:46.237Z,4.29
2022-12-01T05:25:48.716Z,7.23
2022-12-01T05:30:51.366Z,8.92
2022-12-01T05:35:54.771Z,7.83
2022-12-01T05:40:57.390Z,5.80
2022-12-01T05:46:00.048Z,4.66
2022-12-01T05:51:08.956Z,3.92
2022-12-01T05:56:14.032Z,4.41
2022-12-01T06:01:16.538Z,7.20
2022-12-01T06:06:19.272Z,8.44
2022-12-01T06:11:21.827Z,6.86
2022-12-01T06:16:24.371Z,5.34
2022-12-01T06:21:26.918Z,5.44
2022-12-01T06:26:29.480Z,7.91
2022-12-01T06:31:32.033Z,7.68
2022-12-01T06:36:34.863Z,5.71
2022-12-01T06:41:38.462Z,4.62
2022-12-01T06:46:41.026Z,5.09
2022-12-01T06:51:43.482Z,7.78
2022-12-01T06:56:46.025Z,8.10
2022-12-01T07:01:49.020Z,6.08
2022-12-01T07:06:51.593Z,4.95
2022-12-01T07:11:54.067Z,5.33
2022-12-01T07:16:56.597Z,7.99
2022-12-01T07:21:59.135Z,7.83
2022-12-01T07:27:01.617Z,5.95
2022-12-01T07:32:04.328Z,4.88
2022-12-01T07:37:06.926Z,6.05
2022-12-01T07:42:09.454Z,8.31
2022-12-01T07:47:11.965Z,7.78
2022-12-01T07:52:14.510Z,5.71
2022-12-01T07:57:18.124Z,4.71
2022-12-01T08:02:20.674Z,6.38
2022-12-01T08:07:26.077Z,8.65
2022-12-01T08:12:32.116Z,8.34
2022-12-01T08:17:34.601Z,6.38
2022-12-01T08:22:37.086Z,5.28
2022-12-01T08:27:39.694Z,5.66
2022-12-01T08:32:42.181Z,8.17
2022-12-01T08:37:44.681Z,8.60
2022-12-01T08:42:47.412Z,6.71
2022-12-01T08:47:50.263Z,5.45
2022-12-01T08:52:52.928Z,6.37
2022-12-01T08:57:55.394Z,8.57
2022-12-01T09:02:58.111Z,8.44
2022-12-01T09:08:03.694Z,6.54
2022-12-01T09:13:06.412Z,5.40
2022-12-01T09:18:09.006Z,5.69
2022-12-01T09:23:11.639Z,8.34
2022-12-01T09:28:14.781Z,8.03
2022-12-01T09:33:17.416Z,6.32
2022-12-01T09:38:19.858Z,5.28
2022-12-01T09:43:40.467Z,6.72
2022-12-01T09:48:46.531Z,8.76
2022-12-01T09:53:52.746Z,7.02
2022-12-01T09:58:59.208Z,5.62
2022-12-01T10:04:24.576Z,6.03
2022-12-01T10:09:30.951Z,8.66
2022-12-01T10:14:36.250Z,7.63
2022-12-01T10:19:41.425Z,6.10
2022-12-01T10:24:53.041Z,5.75
2022-12-01T10:30:00.477Z,8.30
2022-12-01T10:35:03.188Z,8.26
2022-12-01T10:40:11.969Z,6.31
2022-12-01T10:45:27.070Z,5.22
2022-12-01T10:50:29.905Z,5.89
2022-12-01T10:55:40.834Z,8.55
2022-12-01T11:00:59.973Z,7.88
2022-12-01T11:06:05.704Z,6.39
2022-12-01T11:11:14.057Z,5.66
2022-12-01T11:16:22.484Z,5.13
2022-12-01T11:21:28.324Z,6.62
2022-12-01T11:26:32.847Z,8.92
2022-12-01T11:31:40.984Z,7.69
2022-12-01T11:36:47.337Z,6.09
2022-12-01T11:41:54.499Z,6.00
2022-12-01T11:47:21.583Z,8.48
2022-12-01T11:52:27.900Z,7.79
2022-12-01T11:58:12.622Z,6.07
2022-12-01T12:03:06.157Z,5.20
2022-12-01T12:08:14.531Z,6.97
2022-12-01T12:13:18.002Z,8.80
2022-12-01T12:18:24.394Z,7.32
2022-12-01T12:23:28.884Z,5.77
2022-12-01T12:28:40.804Z,5.93
2022-12-01T12:33:57.162Z,8.46
2022-12-01T12:39:13.591Z,7.97
2022-12-01T12:44:24.931Z,6.13
2022-12-01T12:49:33.925Z,6.29
2022-12-01T12:54:47.766Z,8.69
2022-12-01T12:59:58.175Z,7.55
2022-12-01T13:05:10.251Z,5.64
2022-12-01T13:10:24.330Z,5.85
2022-12-01T13:15:28.768Z,8.38
2022-12-01T13:20:37.709Z,7.76
2022-12-01T13:25:41.410Z,5.66
2022-12-01T13:31:00.565Z,5.63
2022-12-01T13:36:45.119Z,8.20
2022-12-01T13:41:34.881Z,7.71
2022-12-01T13:46:42.390Z,5.69
2022-12-01T13:52:08.099Z,5.87
2022-12-01T13:57:29.696Z,8.43
2022-12-01T14:02:35.476Z,9.14
2022-12-01T14:07:38.775Z,7.06
2022-12-01T14:12:45.530Z,5.52
2022-12-01T14:17:57.769Z,5.73
2022-12-01T14:23:11.099Z,8.21
2022-12-01T14:28:17.393Z,8.22
2022-12-01T14:33:25.859Z,6.11
2022-12-01T14:38:28.898Z,5.93
2022-12-01T14:43:51.882Z,8.32
2022-12-01T14:48:55.311Z,7.53
2022-12-01T14:54:00.415Z,5.50
2022-12-01T14:59:15.658Z,4.38
2022-12-01T15:04:18.821Z,6.08
2022-12-01T15:09:39.015Z,8.24
2022-12-01T15:14:47.403Z,7.13
2022-12-01T15:19:50.423Z,5.07
2022-12-01T15:24:53.323Z,5.01
2022-12-01T15:29:58.507Z,7.50
2022-12-01T15:35:03.426Z,8.61
2022-12-01T15:40:59.670Z,6.86
2022-12-01T15:45:43.286Z,5.18
2022-12-01T15:51:01.231Z,5.19
2022-12-01T15:56:08.418Z,7.66
2022-12-01T16:01:15.437Z,7.46
2022-12-01T16:06:19.337Z,5.51
2022-12-01T16:11:23.608Z,5.37
2022-12-01T16:16:32.102Z,7.65
2022-12-01T16:21:42.935Z,7.74
2022-12-01T16:27:07.860Z,5.62
2022-12-01T16:32:20.644Z,4.54
2022-12-01T16:37:24.117Z,6.50
2022-12-01T16:42:27.665Z,7.47
2022-12-01T16:47:31.990Z,5.52
2022-12-01T16:52:44.076Z,7.31
2022-12-01T16:57:47.069Z,7.68
2022-12-01T17:02:50.348Z,5.69
2022-12-01T17:07:53.129Z,5.07
2022-12-01T17:12:55.796Z,7.72
2022-12-01T17:17:58.301Z,7.24
2022-12-01T17:23:00.938Z,5.24
2022-12-01T17:28:03.467Z,3.98
2022-12-01T17:33:05.951Z,4.41
2022-12-01T17:38:08.509Z,7.40
2022-12-01T17:43:10.983Z,6.05
2022-12-01T17:48:13.468Z,4.29
2022-12-01T17:53:15.987Z,3.48
2022-12-01T17:58:21.334Z,4.90
2022-12-01T18:03:23.912Z,7.59
2022-12-01T18:08:29.266Z,6.99
2022-12-01T18:13:31.738Z,5.07
2022-12-01T18:18:36.014Z,4.09
2022-12-01T18:23:38.962Z,3.46
2022-12-01T18:28:41.530Z,4.39
2022-12-01T18:33:45.166Z,7.33
2022-12-01T18:38:48.395Z,6.99
2022-12-01T18:43:51.486Z,5.10
2022-12-01T18:49:00.793Z,4.04
2022-12-01T18:54:05.443Z,3.18
2022-12-01T18:59:11.001Z,3.74
2022-12-01T19:04:14.641Z,6.46
2022-12-01T19:09:17.394Z,5.46
2022-12-01T19:14:19.953Z,3.95
2022-12-01T19:19:23.328Z,3.09
2022-12-01T19:24:25.834Z,3.42
2022-12-01T19:29:28.349Z,6.14
2022-12-01T19:34:30.832Z,6.63
2022-12-01T19:39:33.312Z,4.72
2022-12-01T19:44:35.855Z,3.53
2022-12-01T19:49:38.396Z,2.80
2022-12-01T19:54:40.967Z,2.30
2022-12-01T19:59:43.548Z,3.02
2022-12-01T20:04:46.641Z,5.90
2022-12-01T20:09:50.194Z,5.70
2022-12-01T20:14:53.389Z,3.86
2022-12-01T20:19:55.962Z,2.83
2022-12-01T20:24:58.858Z,3.59
2022-12-01T20:30:01.360Z,5.75
2022-12-01T20:35:04.665Z,4.24
2022-12-01T20:40:07.684Z,3.04
2022-12-01T20:45:10.161Z,2.38
2022-12-01T20:50:12.692Z,2.07
2022-12-01T20:55:15.255Z,4.22
2022-12-01T21:00:18.168Z,6.43
2022-12-01T21:05:20.708Z,5.59
2022-12-01T21:10:23.281Z,3.83
2022-12-01T21:15:28.971Z,2.92
2022-12-01T21:20:39.137Z,2.30
2022-12-01T21:25:42.965Z,3.01
2022-12-01T21:30:47.432Z,5.80
2022-12-01T21:35:51.840Z,5.02
2022-12-01T21:40:54.405Z,3.44
2022-12-01T21:46:01.963Z,2.59
2022-12-01T21:51:25.253Z,2.01
2022-12-01T21:56:29.045Z,1.51
2022-12-01T22:01:32.770Z,1.15
2022-12-01T22:06:39.995Z,1.03
2022-12-01T22:11:44.734Z,3.58
2022-12-01T22:16:53.220Z,5.13
2022-12-01T22:22:00.470Z,3.44
2022-12-01T22:27:14.316Z,2.46
2022-12-01T22:32:16.729Z,1.85
2022-12-01T22:37:23.828Z,1.83
2022-12-01T22:42:34.903Z,4.56
2022-12-01T22:47:38.024Z,5.03
2022-12-01T22:52:40.508Z,3.26
2022-12-01T22:57:42.981Z,2.26
2022-12-01T23:02:48.362Z,1.54
2022-12-01T23:07:52.321Z,1.05
2022-12-01T23:12:57.987Z,0.66
2022-12-01T23:18:23.497Z,0.39
2022-12-01T23:23:30.757Z,1.52
2022-12-01T23:28:36.396Z,4.60
2022-12-01T23:33:38.853Z,4.86
2022-12-01T23:38:43.816Z,3.03
2022-12-01T23:43:46.574Z,2.01
2022-12-01T23:49:01.277Z,1.44
2022-12-01T23:54:12.623Z,3.53
2022-12-01T23:59:15.257Z,5.79
